Terminal Aerodrome Forecast
Issued by NWS

Home | Current Version | Previous Version | Text Only | Print | Product List | Glossary On
Versions: 1 2 3 4 5 6 7 8 9 10 11 12 13 14 15 16 17
634
FTUS46 KPDT 090526
TAFPSC
TAF
KPSC 090526Z 0906/1006 34005KT 5SM -SHSN BR BKN040
     FM092200 35006KT 5SM -SN BR OVC025=

USA.gov is the U.S. government's official web portal to all federal, state and local government web resources and services.